Skip to Main Content

If you see just a black screen when trying to view Live Traffic cameras, please click inside the window to get video to play. An update to certain browsers is not allowing the video to auto-play when the window opens. 

SEARCH:
Location Air RH Dwp Precip Type Wind Speed Wind Gust Direction Pavement Temperature Date/Time
Hatem Bridge US 40 E/B 78 83 73 None 9 mph 12 mph SW 77 - 77 7/17/2018 6:59:00 AM
I-270 at I-370 75 89 71 None Calm Calm SW 77 - 79 7/17/2018 6:55:00 AM
I-270 at MD-109 71 99 71 None Calm Calm NW 78 - 79 7/17/2018 6:50:00 AM
I-495 at American Legion Bridge 74 100 74 None Calm 10 mph N 79 - 81 7/17/2018 6:55:00 AM
I-68 at Savage Mt 68 97 67 None Calm 5 mph NW 73 - 74 7/17/2018 6:55:00 AM
I-68 at Sideling Hill 72 94 70 None Calm Calm N 78 - 78 7/17/2018 6:55:00 AM
I-68 at US 219 68 96 67 None 7 mph 12 mph W 73 - 76 7/17/2018 6:55:00 AM
I-68 at WV Line 71 81 65 None Calm 6 mph W 75 - 77 7/17/2018 6:55:00 AM
I-695 at I-83 74 90 71 None 5 mph 11 mph N 79 - 79 7/17/2018 6:55:00 AM
I-695 on FSK Bridge 76 93 74 None Calm 5 mph N 79 - 79 7/17/2018 6:58:00 AM
I-70 at Fred-Wash Co. 74 86 70 None Calm 4 mph NW 78 - 79 7/17/2018 6:55:00 AM
I-70 at I-695 74 92 72 None Calm 6 mph SW 78 - 82 7/17/2018 6:55:00 AM
I-70 at I-81 74 92 72 None Calm 6 mph SW - 7/17/2018 6:55:00 AM
I-70 at MD-27 72 100 72 None Calm 6 mph SW 77 - 78 7/17/2018 6:55:00 AM
I-70 at MD-32 71 99 70 None Calm Calm E 77 - 78 7/17/2018 6:55:00 AM
I-83 at MD-137 74 99 73 None Calm 5 mph E 79 - 79 7/17/2018 6:55:00 AM
I-95 at I-695 NE 76 86 72 None Calm 4 mph S 80 - 82 7/17/2018 6:58:00 AM
I-95 at Patuxent River 77 90 74 None 4 mph 11 mph SW 80 - 82 7/17/2018 6:55:00 AM
I-95 at Tydings Bridge 79 82 73 None Calm 11 mph E 82 - 83 7/17/2018 6:55:00 AM
I-95/495 at I-295 82 76 74 None Calm 5 mph S 80 - 82 7/17/2018 6:55:00 AM
I-97 at MD-100 75 91 73 None Calm 7 mph SW 77 - 78 7/17/2018 6:55:00 AM
I-97 at MD-32 74 91 71 None Calm 6 mph SW 77 - 77 7/17/2018 6:55:00 AM
IS 70 W of I-270 - - - No Data Available - - No Data Available 79 - 79 7/17/2018 6:55:00 AM
MD 136 @ MD 646 73 96 72 No Data Available Calm 4 mph SW 81 - 81 7/17/2018 6:55:00 AM
MD 20 at MD 21 77 84 72 None 6 mph 11 mph SW 82 - 82 7/17/2018 6:55:00 AM
MD 23 at Meadowtree Road 72 95 71 No Data Available Calm 4 mph S 79 - 79 7/17/2018 6:55:00 AM
MD 231 at Patuxent River 77 87 73 None 8 mph 11 mph S 79 - 83 7/17/2018 6:55:00 AM
MD 24 at Jarrettsville Road 74 95 72 No Data Available Calm 6 mph SW 81 - 81 7/17/2018 6:55:00 AM
MD 260 at Cox Rd 76 86 72 None 5 mph 10 mph SW 83 - 83 7/17/2018 6:55:00 AM
MD-135 at Salt Dome 67 100 67 None 4 mph 11 mph W 74 - 74 7/17/2018 6:55:00 AM
MD-140 at MD-97 71 97 71 None Calm 4 mph SW 77 - 78 7/17/2018 6:55:00 AM
MD-200 EB at Bonifant Rd - - - No Data Available - - No Data Available -
MD-200 WB at Muncaster Mill Rd 72 92 70 None Calm 6 mph N 77 - 77 7/17/2018 6:59:00 AM
MD-213 at Sassafras River 77 96 76 None 4 mph 7 mph SW 81 - 81 7/17/2018 6:55:00 AM
MD-24 at Rock St Park 71 100 71 None Calm Calm N 75 - 75 7/17/2018 6:55:00 AM
MD-30 at PA Line 72 99 72 None 6 mph 11 mph S 80 - 80 7/17/2018 6:55:00 AM
MD-33 at Knapps Narrows Drawbridge 78 82 73 None 4 mph 13 mph SW 85 - 85 7/17/2018 6:55:00 AM
MD-344 at MD-224 76 89 72 None Calm Calm S 83 - 83 7/17/2018 6:55:00 AM
MD-4 at Patuxent River 78 87 74 None 9 mph 17 mph SW 80 - 83 7/17/2018 6:58:00 AM
MD-404 at Choptank River 78 86 73 None 4 mph 9 mph S 82 - 83 7/17/2018 6:55:00 AM
MD-43 at MD-150 78 90 75 None 6 mph 9 mph SW 80 - 82 7/17/2018 6:55:00 AM
MD-51 at Oldtown Salt Dome 68 100 68 None Calm Calm N 79 - 79 7/17/2018 6:55:00 AM
MD-64 at MD-418 71 93 69 None Calm Calm NE 82 - 83 7/17/2018 6:55:00 AM
US 301 at MD 305 77 87 73 None 4 mph 6 mph S 82 - 84 7/17/2018 6:55:00 AM
US-1 at Baltimore / Harford Co. Line 72 95 71 None Calm Calm N 77 - 77 7/17/2018 6:55:00 AM
US-1 at Conowingo Dam 77 93 75 None Calm 4 mph SE 81 - 81 7/17/2018 6:50:00 AM
US-13 at US-113 75 91 73 None Calm 8 mph S 83 - 84 7/17/2018 6:55:00 AM
US-13 at US-50 75 92 72 None Calm 4 mph S 81 - 81 7/17/2018 6:55:00 AM
US-15 at MD-140 71 93 69 None Calm 5 mph S 77 - 79 7/17/2018 6:55:00 AM
US-301 at MD-5 77 90 73 None Calm 6 mph S 82 - 82 7/17/2018 6:55:00 AM
US-301 at Potomac 79 87 75 None 7 mph 11 mph S 76 - 78 7/17/2018 6:58:00 AM
US-340 at MD-180 69 92 67 None Calm Calm N 76 - 78 7/17/2018 6:55:00 AM
US-50 at Choptank 78 95 77 None Calm 6 mph SW 80 - 82 7/17/2018 6:55:00 AM
US-50 at I-95 78 86 73 None Calm 8 mph SW 83 - 83 7/17/2018 6:55:00 AM
US-50 at MD-2 77 91 74 None 4 mph 9 mph S 81 - 81 7/17/2018 6:55:00 AM
US-50 at MD-331 79 85 75 None 7 mph 14 mph SW 82 - 83 7/17/2018 6:55:00 AM
US-50 at OC Drawbridge 75 100 75 None 4 mph 11 mph S 81 - 81 7/17/2018 6:55:00 AM
US-50 at Table Rock Rd 68 98 67 None Calm Calm W 75 - 75 7/17/2018 6:55:00 AM
US-50 Kent Narrow Bridge 79 88 76 None 7 mph 15 mph S 80 - 83 7/17/2018 6:55:00 AM
WPL Pier 31 78 83 72 None 4 mph 17 mph S 79 - 79 7/17/2018 6:59:00 AM
Location Air RH Dwp Precip Type Wind Speed Wind Gust Direction Pavement Temperature Date/Time